sensor_id;sensor_type;location;lat;lon;timestamp;temperature;humidity
23629;DHT22;11991;57.150;-2.134;2023-04-25T00:01:26;3.10;99.90
23629;DHT22;11991;57.150;-2.134;2023-04-25T00:03:53;3.10;99.90
23629;DHT22;11991;57.150;-2.134;2023-04-25T00:06:22;3.10;99.90
23629;DHT22;11991;57.150;-2.134;2023-04-25T00:08:53;3.10;99.90
23629;DHT22;11991;57.150;-2.134;2023-04-25T00:11:21;3.10;99.90
23629;DHT22;11991;57.150;-2.134;2023-04-25T00:13:48;3.00;99.90
23629;DHT22;11991;57.150;-2.134;2023-04-25T00:16:17;3.00;99.90
23629;DHT22;11991;57.150;-2.134;2023-04-25T00:18:44;2.90;99.90
23629;DHT22;11991;57.150;-2.134;2023-04-25T00:21:13;2.90;99.90
23629;DHT22;11991;57.150;-2.134;2023-04-25T00:23:41;2.80;99.90
23629;DHT22;11991;57.150;-2.134;2023-04-25T00:26:08;2.80;99.90
23629;DHT22;11991;57.150;-2.134;2023-04-25T00:28:35;2.80;99.90
23629;DHT22;11991;57.150;-2.134;2023-04-25T00:31:02;2.80;99.90
23629;DHT22;11991;57.150;-2.134;2023-04-25T00:33:30;2.80;99.90
23629;DHT22;11991;57.150;-2.134;2023-04-25T00:35:57;2.80;99.90
23629;DHT22;11991;57.150;-2.134;2023-04-25T00:38:24;2.80;99.90
23629;DHT22;11991;57.150;-2.134;2023-04-25T00:40:51;2.80;99.90
23629;DHT22;11991;57.150;-2.134;2023-04-25T00:43:19;2.80;99.90
23629;DHT22;11991;57.150;-2.134;2023-04-25T00:45:47;2.80;99.90
23629;DHT22;11991;57.150;-2.134;2023-04-25T00:48:17;2.80;99.90
23629;DHT22;11991;57.150;-2.134;2023-04-25T00:50:52;2.80;99.90
23629;DHT22;11991;57.150;-2.134;2023-04-25T00:53:22;2.80;99.90
23629;DHT22;11991;57.150;-2.134;2023-04-25T00:55:50;2.80;99.90
23629;DHT22;11991;57.150;-2.134;2023-04-25T00:58:22;2.80;99.90
23629;DHT22;11991;57.150;-2.134;2023-04-25T01:00:50;2.90;99.90
23629;DHT22;11991;57.150;-2.134;2023-04-25T01:03:19;2.90;99.90
23629;DHT22;11991;57.150;-2.134;2023-04-25T01:05:47;2.90;99.90
23629;DHT22;11991;57.150;-2.134;2023-04-25T01:08:15;2.80;99.90
23629;DHT22;11991;57.150;-2.134;2023-04-25T01:10:42;2.90;99.90
23629;DHT22;11991;57.150;-2.134;2023-04-25T01:13:09;2.90;99.90
23629;DHT22;11991;57.150;-2.134;2023-04-25T01:15:37;2.80;99.90
23629;DHT22;11991;57.150;-2.134;2023-04-25T01:18:05;2.80;99.90
23629;DHT22;11991;57.150;-2.134;2023-04-25T01:20:33;2.80;99.90
23629;DHT22;11991;57.150;-2.134;2023-04-25T01:23:01;2.80;99.90
23629;DHT22;11991;57.150;-2.134;2023-04-25T01:25:30;2.80;99.90
23629;DHT22;11991;57.150;-2.134;2023-04-25T01:27:58;2.80;99.90
23629;DHT22;11991;57.150;-2.134;2023-04-25T01:30:27;2.80;99.90
23629;DHT22;11991;57.150;-2.134;2023-04-25T01:32:55;2.70;99.90
23629;DHT22;11991;57.150;-2.134;2023-04-25T01:35:23;2.70;99.90
23629;DHT22;11991;57.150;-2.134;2023-04-25T01:37:53;2.70;99.90
23629;DHT22;11991;57.150;-2.134;2023-04-25T01:40:21;2.70;99.90
23629;DHT22;11991;57.150;-2.134;2023-04-25T01:42:50;2.70;99.90
23629;DHT22;11991;57.150;-2.134;2023-04-25T01:45:18;2.60;99.90
23629;DHT22;11991;57.150;-2.134;2023-04-25T01:47:46;2.60;99.90
23629;DHT22;11991;57.150;-2.134;2023-04-25T01:50:18;2.60;99.90
23629;DHT22;11991;57.150;-2.134;2023-04-25T01:52:47;2.60;99.90
23629;DHT22;11991;57.150;-2.134;2023-04-25T01:55:15;2.60;99.90
23629;DHT22;11991;57.150;-2.134;2023-04-25T01:57:52;2.50;99.90
23629;DHT22;11991;57.150;-2.134;2023-04-25T02:00:27;2.60;99.90
23629;DHT22;11991;57.150;-2.134;2023-04-25T02:02:58;2.60;99.90
23629;DHT22;11991;57.150;-2.134;2023-04-25T02:05:35;2.60;99.90
23629;DHT22;11991;57.150;-2.134;2023-04-25T02:08:06;2.70;99.90
23629;DHT22;11991;57.150;-2.134;2023-04-25T02:10:34;2.70;99.90
23629;DHT22;11991;57.150;-2.134;2023-04-25T02:13:09;2.70;99.90
23629;DHT22;11991;57.150;-2.134;2023-04-25T02:15:44;2.70;99.90
23629;DHT22;11991;57.150;-2.134;2023-04-25T02:18:17;2.70;99.90
23629;DHT22;11991;57.150;-2.134;2023-04-25T02:20:45;2.70;99.90
23629;DHT22;11991;57.150;-2.134;2023-04-25T02:23:12;2.70;99.90
23629;DHT22;11991;57.150;-2.134;2023-04-25T02:25:42;2.70;99.90
23629;DHT22;11991;57.150;-2.134;2023-04-25T02:28:09;2.70;99.90
23629;DHT22;11991;57.150;-2.134;2023-04-25T02:30:37;2.70;99.90
23629;DHT22;11991;57.150;-2.134;2023-04-25T02:33:04;2.60;99.90
23629;DHT22;11991;57.150;-2.134;2023-04-25T02:35:32;2.60;99.90
23629;DHT22;11991;57.150;-2.134;2023-04-25T02:37:59;2.60;99.90
23629;DHT22;11991;57.150;-2.134;2023-04-25T02:40:27;2.60;99.90
23629;DHT22;11991;57.150;-2.134;2023-04-25T02:42:54;2.50;99.90
23629;DHT22;11991;57.150;-2.134;2023-04-25T02:45:21;2.50;99.90
23629;DHT22;11991;57.150;-2.134;2023-04-25T02:47:49;2.50;99.90
23629;DHT22;11991;57.150;-2.134;2023-04-25T02:50:18;2.50;99.90
23629;DHT22;11991;57.150;-2.134;2023-04-25T02:52:45;2.40;99.90
23629;DHT22;11991;57.150;-2.134;2023-04-25T02:55:17;2.40;99.90
23629;DHT22;11991;57.150;-2.134;2023-04-25T02:57:45;2.40;99.90
23629;DHT22;11991;57.150;-2.134;2023-04-25T03:00:19;2.40;99.90
23629;DHT22;11991;57.150;-2.134;2023-04-25T03:02:46;2.40;99.90
23629;DHT22;11991;57.150;-2.134;2023-04-25T03:05:13;2.40;99.90
23629;DHT22;11991;57.150;-2.134;2023-04-25T03:07:41;2.40;99.90
23629;DHT22;11991;57.150;-2.134;2023-04-25T03:10:10;2.40;99.90
23629;DHT22;11991;57.150;-2.134;2023-04-25T03:12:37;2.40;99.90
23629;DHT22;11991;57.150;-2.134;2023-04-25T03:15:05;2.40;99.90
23629;DHT22;11991;57.150;-2.134;2023-04-25T03:17:33;2.40;99.90
23629;DHT22;11991;57.150;-2.134;2023-04-25T03:20:00;2.30;99.90
23629;DHT22;11991;57.150;-2.134;2023-04-25T03:22:28;2.30;99.90
23629;DHT22;11991;57.150;-2.134;2023-04-25T03:24:55;2.30;99.90
23629;DHT22;11991;57.150;-2.134;2023-04-25T03:27:22;2.30;99.90
23629;DHT22;11991;57.150;-2.134;2023-04-25T03:29:50;2.30;99.90
23629;DHT22;11991;57.150;-2.134;2023-04-25T03:32:18;2.20;99.90
23629;DHT22;11991;57.150;-2.134;2023-04-25T03:34:45;2.20;99.90
23629;DHT22;11991;57.150;-2.134;2023-04-25T03:37:13;2.20;99.90
23629;DHT22;11991;57.150;-2.134;2023-04-25T03:39:40;2.10;99.90
23629;DHT22;11991;57.150;-2.134;2023-04-25T03:42:07;2.20;99.90
23629;DHT22;11991;57.150;-2.134;2023-04-25T03:44:35;2.10;99.90
23629;DHT22;11991;57.150;-2.134;2023-04-25T03:47:02;2.10;99.90
23629;DHT22;11991;57.150;-2.134;2023-04-25T03:49:30;2.20;99.90
23629;DHT22;11991;57.150;-2.134;2023-04-25T03:52:01;2.10;99.90
23629;DHT22;11991;57.150;-2.134;2023-04-25T03:54:33;2.10;99.90
23629;DHT22;11991;57.150;-2.134;2023-04-25T03:57:14;2.10;99.90
23629;DHT22;11991;57.150;-2.134;2023-04-25T03:59:42;2.10;99.90
23629;DHT22;11991;57.150;-2.134;2023-04-25T04:02:12;2.10;99.90
23629;DHT22;11991;57.150;-2.134;2023-04-25T04:04:40;2.10;99.90
23629;DHT22;11991;57.150;-2.134;2023-04-25T04:07:09;2.10;99.90
23629;DHT22;11991;57.150;-2.134;2023-04-25T04:09:40;2.10;99.90
23629;DHT22;11991;57.150;-2.134;2023-04-25T04:12:12;2.10;99.90
23629;DHT22;11991;57.150;-2.134;2023-04-25T04:14:40;2.10;99.90
23629;DHT22;11991;57.150;-2.134;2023-04-25T04:17:08;2.10;99.90
23629;DHT22;11991;57.150;-2.134;2023-04-25T04:19:35;2.10;99.90
23629;DHT22;11991;57.150;-2.134;2023-04-25T04:22:16;2.10;99.90
23629;DHT22;11991;57.150;-2.134;2023-04-25T04:24:43;2.20;99.90
23629;DHT22;11991;57.150;-2.134;2023-04-25T04:27:19;2.20;99.90
23629;DHT22;11991;57.150;-2.134;2023-04-25T04:30:00;2.10;99.90
23629;DHT22;11991;57.150;-2.134;2023-04-25T04:32:33;2.10;99.90
23629;DHT22;11991;57.150;-2.134;2023-04-25T04:35:03;2.10;99.90
23629;DHT22;11991;57.150;-2.134;2023-04-25T04:37:31;2.10;99.90
23629;DHT22;11991;57.150;-2.134;2023-04-25T04:39:59;2.10;99.90
23629;DHT22;11991;57.150;-2.134;2023-04-25T04:42:43;2.10;99.90
23629;DHT22;11991;57.150;-2.134;2023-04-25T04:45:20;2.10;99.90
23629;DHT22;11991;57.150;-2.134;2023-04-25T04:48:01;2.10;99.90
23629;DHT22;11991;57.150;-2.134;2023-04-25T04:50:54;2.10;99.90
23629;DHT22;11991;57.150;-2.134;2023-04-25T04:53:41;2.10;99.90
23629;DHT22;11991;57.150;-2.134;2023-04-25T04:56:29;2.10;99.90
23629;DHT22;11991;57.150;-2.134;2023-04-25T04:59:16;2.10;99.90
23629;DHT22;11991;57.150;-2.134;2023-04-25T05:02:01;2.10;99.90
23629;DHT22;11991;57.150;-2.134;2023-04-25T05:04:47;2.10;99.90
23629;DHT22;11991;57.150;-2.134;2023-04-25T05:07:29;2.00;99.90
23629;DHT22;11991;57.150;-2.134;2023-04-25T05:10:18;2.10;99.90
23629;DHT22;11991;57.150;-2.134;2023-04-25T05:13:17;2.10;99.90
23629;DHT22;11991;57.150;-2.134;2023-04-25T05:16:05;2.10;99.90
23629;DHT22;11991;57.150;-2.134;2023-04-25T05:18:59;2.10;99.90
23629;DHT22;11991;57.150;-2.134;2023-04-25T05:21:40;2.10;99.90
23629;DHT22;11991;57.150;-2.134;2023-04-25T05:24:28;2.20;99.90
23629;DHT22;11991;57.150;-2.134;2023-04-25T05:27:25;2.10;99.90
23629;DHT22;11991;57.150;-2.134;2023-04-25T05:30:01;2.20;99.90
23629;DHT22;11991;57.150;-2.134;2023-04-25T05:32:57;2.20;99.90
23629;DHT22;11991;57.150;-2.134;2023-04-25T05:35:26;2.20;99.90
23629;DHT22;11991;57.150;-2.134;2023-04-25T05:37:54;2.30;99.90
23629;DHT22;11991;57.150;-2.134;2023-04-25T05:40:34;2.30;99.90
23629;DHT22;11991;57.150;-2.134;2023-04-25T05:43:16;2.40;99.90
23629;DHT22;11991;57.150;-2.134;2023-04-25T05:45:49;2.40;99.90
23629;DHT22;11991;57.150;-2.134;2023-04-25T05:48:39;2.40;99.90
23629;DHT22;11991;57.150;-2.134;2023-04-25T05:51:30;2.30;99.90
23629;DHT22;11991;57.150;-2.134;2023-04-25T05:54:25;2.30;99.90
23629;DHT22;11991;57.150;-2.134;2023-04-25T05:56:55;2.40;99.90
23629;DHT22;11991;57.150;-2.134;2023-04-25T05:59:23;2.40;99.90
23629;DHT22;11991;57.150;-2.134;2023-04-25T06:01:50;2.40;99.90
23629;DHT22;11991;57.150;-2.134;2023-04-25T06:04:20;2.50;99.90
23629;DHT22;11991;57.150;-2.134;2023-04-25T06:06:48;2.50;99.90
23629;DHT22;11991;57.150;-2.134;2023-04-25T06:09:15;2.50;99.90
23629;DHT22;11991;57.150;-2.134;2023-04-25T06:11:42;2.50;99.90
23629;DHT22;11991;57.150;-2.134;2023-04-25T06:14:09;2.50;99.90
23629;DHT22;11991;57.150;-2.134;2023-04-25T06:16:42;2.50;99.90
23629;DHT22;11991;57.150;-2.134;2023-04-25T06:19:10;2.50;99.90
23629;DHT22;11991;57.150;-2.134;2023-04-25T06:21:37;2.40;99.90
23629;DHT22;11991;57.150;-2.134;2023-04-25T06:24:04;2.40;99.90
23629;DHT22;11991;57.150;-2.134;2023-04-25T06:26:32;2.40;99.90
23629;DHT22;11991;57.150;-2.134;2023-04-25T06:28:59;2.40;99.90
23629;DHT22;11991;57.150;-2.134;2023-04-25T06:31:26;2.40;99.90
23629;DHT22;11991;57.150;-2.134;2023-04-25T06:33:55;2.40;99.90
23629;DHT22;11991;57.150;-2.134;2023-04-25T06:36:24;2.40;99.90
23629;DHT22;11991;57.150;-2.134;2023-04-25T06:38:55;2.20;99.90
23629;DHT22;11991;57.150;-2.134;2023-04-25T06:41:22;2.10;99.90
23629;DHT22;11991;57.150;-2.134;2023-04-25T06:43:49;2.10;99.90
23629;DHT22;11991;57.150;-2.134;2023-04-25T06:46:32;2.00;99.90
23629;DHT22;11991;57.150;-2.134;2023-04-25T06:48:59;2.00;99.90
23629;DHT22;11991;57.150;-2.134;2023-04-25T06:51:27;2.00;99.90
23629;DHT22;11991;57.150;-2.134;2023-04-25T06:53:57;2.10;99.90
23629;DHT22;11991;57.150;-2.134;2023-04-25T06:56:34;2.20;99.90
23629;DHT22;11991;57.150;-2.134;2023-04-25T06:59:06;2.20;99.90
23629;DHT22;11991;57.150;-2.134;2023-04-25T07:01:39;2.40;99.90
23629;DHT22;11991;57.150;-2.134;2023-04-25T07:04:16;2.50;99.90
23629;DHT22;11991;57.150;-2.134;2023-04-25T07:06:56;2.60;99.90
23629;DHT22;11991;57.150;-2.134;2023-04-25T07:09:31;2.80;99.90
23629;DHT22;11991;57.150;-2.134;2023-04-25T07:12:01;2.90;99.90
23629;DHT22;11991;57.150;-2.134;2023-04-25T07:14:28;3.00;99.90
23629;DHT22;11991;57.150;-2.134;2023-04-25T07:16:56;3.00;99.90
23629;DHT22;11991;57.150;-2.134;2023-04-25T07:19:25;3.10;99.90
23629;DHT22;11991;57.150;-2.134;2023-04-25T07:21:56;3.20;99.90
23629;DHT22;11991;57.150;-2.134;2023-04-25T07:24:23;3.20;99.90
23629;DHT22;11991;57.150;-2.134;2023-04-25T07:26:53;3.30;99.90
23629;DHT22;11991;57.150;-2.134;2023-04-25T07:29:41;3.40;99.90
23629;DHT22;11991;57.150;-2.134;2023-04-25T07:32:09;3.40;99.90
23629;DHT22;11991;57.150;-2.134;2023-04-25T07:34:41;3.40;99.90
23629;DHT22;11991;57.150;-2.134;2023-04-25T07:37:09;3.50;99.90
23629;DHT22;11991;57.150;-2.134;2023-04-25T07:39:47;3.50;99.90
23629;DHT22;11991;57.150;-2.134;2023-04-25T07:42:16;3.60;99.90
23629;DHT22;11991;57.150;-2.134;2023-04-25T07:44:44;3.60;99.90
23629;DHT22;11991;57.150;-2.134;2023-04-25T07:47:13;3.70;99.90
23629;DHT22;11991;57.150;-2.134;2023-04-25T07:49:41;3.80;99.90
23629;DHT22;11991;57.150;-2.134;2023-04-25T07:52:10;3.90;99.90
23629;DHT22;11991;57.150;-2.134;2023-04-25T07:54:42;4.00;99.90
23629;DHT22;11991;57.150;-2.134;2023-04-25T07:57:16;4.00;99.90
23629;DHT22;11991;57.150;-2.134;2023-04-25T07:59:48;4.00;99.90
23629;DHT22;11991;57.150;-2.134;2023-04-25T08:02:15;4.00;99.90
23629;DHT22;11991;57.150;-2.134;2023-04-25T08:04:44;4.00;99.90
23629;DHT22;11991;57.150;-2.134;2023-04-25T08:07:16;4.00;99.90
23629;DHT22;11991;57.150;-2.134;2023-04-25T08:09:51;4.00;99.90
23629;DHT22;11991;57.150;-2.134;2023-04-25T08:12:26;4.00;99.90
23629;DHT22;11991;57.150;-2.134;2023-04-25T08:14:53;4.10;99.90
23629;DHT22;11991;57.150;-2.134;2023-04-25T08:17:23;4.10;99.90
23629;DHT22;11991;57.150;-2.134;2023-04-25T08:19:51;4.20;99.90
23629;DHT22;11991;57.150;-2.134;2023-04-25T08:22:30;4.30;99.90
23629;DHT22;11991;57.150;-2.134;2023-04-25T08:25:25;4.40;99.90
23629;DHT22;11991;57.150;-2.134;2023-04-25T08:27:53;4.40;99.90
23629;DHT22;11991;57.150;-2.134;2023-04-25T08:30:21;4.40;99.90
23629;DHT22;11991;57.150;-2.134;2023-04-25T08:32:50;4.40;99.90
23629;DHT22;11991;57.150;-2.134;2023-04-25T08:35:36;4.50;99.90
23629;DHT22;11991;57.150;-2.134;2023-04-25T08:38:03;4.50;99.90
23629;DHT22;11991;57.150;-2.134;2023-04-25T08:40:37;4.60;99.90
23629;DHT22;11991;57.150;-2.134;2023-04-25T08:43:18;4.60;99.90
23629;DHT22;11991;57.150;-2.134;2023-04-25T08:45:46;4.60;99.90
23629;DHT22;11991;57.150;-2.134;2023-04-25T08:48:32;4.70;99.90
23629;DHT22;11991;57.150;-2.134;2023-04-25T08:51:07;4.80;99.90
23629;DHT22;11991;57.150;-2.134;2023-04-25T08:53:34;4.90;99.90
23629;DHT22;11991;57.150;-2.134;2023-04-25T08:56:05;5.00;99.90
23629;DHT22;11991;57.150;-2.134;2023-04-25T08:58:35;5.00;99.90
23629;DHT22;11991;57.150;-2.134;2023-04-25T09:01:04;4.90;99.90
23629;DHT22;11991;57.150;-2.134;2023-04-25T09:03:38;5.00;99.90
23629;DHT22;11991;57.150;-2.134;2023-04-25T09:06:05;5.10;99.90
23629;DHT22;11991;57.150;-2.134;2023-04-25T09:08:33;5.20;99.90
23629;DHT22;11991;57.150;-2.134;2023-04-25T09:11:03;5.20;99.90
23629;DHT22;11991;57.150;-2.134;2023-04-25T09:13:30;5.20;99.90
23629;DHT22;11991;57.150;-2.134;2023-04-25T09:19:47;4.70;99.90
23629;DHT22;11991;57.150;-2.134;2023-04-25T09:22:21;4.20;99.90
23629;DHT22;11991;57.150;-2.134;2023-04-25T09:24:50;4.00;99.90
23629;DHT22;11991;57.150;-2.134;2023-04-25T09:27:21;3.80;99.90
23629;DHT22;11991;57.150;-2.134;2023-04-25T09:29:59;3.70;99.90
23629;DHT22;11991;57.150;-2.134;2023-04-25T09:33:06;3.70;99.90
23629;DHT22;11991;57.150;-2.134;2023-04-25T09:35:42;3.80;99.90
23629;DHT22;11991;57.150;-2.134;2023-04-25T09:38:18;3.90;99.90
23629;DHT22;11991;57.150;-2.134;2023-04-25T09:41:44;4.00;99.90
23629;DHT22;11991;57.150;-2.134;2023-04-25T09:44:19;4.20;99.90
23629;DHT22;11991;57.150;-2.134;2023-04-25T09:46:51;4.30;99.90
23629;DHT22;11991;57.150;-2.134;2023-04-25T09:49:25;4.50;99.90
23629;DHT22;11991;57.150;-2.134;2023-04-25T09:52:03;4.60;99.90
23629;DHT22;11991;57.150;-2.134;2023-04-25T09:54:37;4.70;99.90
23629;DHT22;11991;57.150;-2.134;2023-04-25T09:57:12;4.80;99.90
23629;DHT22;11991;57.150;-2.134;2023-04-25T09:59:45;5.00;99.90
23629;DHT22;11991;57.150;-2.134;2023-04-25T10:02:16;5.30;99.90
23629;DHT22;11991;57.150;-2.134;2023-04-25T10:04:49;5.40;99.90
23629;DHT22;11991;57.150;-2.134;2023-04-25T10:07:25;5.50;99.90
23629;DHT22;11991;57.150;-2.134;2023-04-25T10:09:58;5.70;99.90
23629;DHT22;11991;57.150;-2.134;2023-04-25T10:12:27;5.70;99.90
23629;DHT22;11991;57.150;-2.134;2023-04-25T10:14:55;5.70;99.90
23629;DHT22;11991;57.150;-2.134;2023-04-25T10:17:26;5.50;99.90
23629;DHT22;11991;57.150;-2.134;2023-04-25T10:19:57;5.30;99.90
23629;DHT22;11991;57.150;-2.134;2023-04-25T10:22:36;5.30;99.90
23629;DHT22;11991;57.150;-2.134;2023-04-25T10:25:05;5.40;99.90
23629;DHT22;11991;57.150;-2.134;2023-04-25T10:27:34;5.40;99.90
23629;DHT22;11991;57.150;-2.134;2023-04-25T10:30:08;5.50;99.90
23629;DHT22;11991;57.150;-2.134;2023-04-25T10:32:38;5.70;99.90
23629;DHT22;11991;57.150;-2.134;2023-04-25T10:35:14;5.80;99.90
23629;DHT22;11991;57.150;-2.134;2023-04-25T10:38:08;5.90;99.90
23629;DHT22;11991;57.150;-2.134;2023-04-25T10:40:36;6.00;99.90
23629;DHT22;11991;57.150;-2.134;2023-04-25T10:46:02;6.10;99.90
23629;DHT22;11991;57.150;-2.134;2023-04-25T10:48:31;6.20;99.90
23629;DHT22;11991;57.150;-2.134;2023-04-25T10:51:15;6.10;99.90
23629;DHT22;11991;57.150;-2.134;2023-04-25T10:54:03;6.00;99.90
23629;DHT22;11991;57.150;-2.134;2023-04-25T10:56:41;5.80;99.90
23629;DHT22;11991;57.150;-2.134;2023-04-25T10:59:16;5.80;99.90
23629;DHT22;11991;57.150;-2.134;2023-04-25T11:01:48;5.80;99.90
23629;DHT22;11991;57.150;-2.134;2023-04-25T11:04:30;5.80;99.90
23629;DHT22;11991;57.150;-2.134;2023-04-25T11:07:13;5.90;99.90
23629;DHT22;11991;57.150;-2.134;2023-04-25T11:09:45;6.00;99.90
23629;DHT22;11991;57.150;-2.134;2023-04-25T11:12:13;5.90;99.90
23629;DHT22;11991;57.150;-2.134;2023-04-25T11:14:40;5.40;99.90
23629;DHT22;11991;57.150;-2.134;2023-04-25T11:17:08;5.10;99.90
23629;DHT22;11991;57.150;-2.134;2023-04-25T11:19:36;4.90;99.90
23629;DHT22;11991;57.150;-2.134;2023-04-25T11:22:03;4.90;99.90
23629;DHT22;11991;57.150;-2.134;2023-04-25T11:24:32;4.90;99.90
23629;DHT22;11991;57.150;-2.134;2023-04-25T11:27:00;4.90;99.90
23629;DHT22;11991;57.150;-2.134;2023-04-25T11:29:33;5.10;99.90
23629;DHT22;11991;57.150;-2.134;2023-04-25T11:32:01;5.20;99.90
23629;DHT22;11991;57.150;-2.134;2023-04-25T11:34:30;5.30;99.90
23629;DHT22;11991;57.150;-2.134;2023-04-25T11:36:58;5.40;99.90
23629;DHT22;11991;57.150;-2.134;2023-04-25T11:39:26;5.60;99.90
23629;DHT22;11991;57.150;-2.134;2023-04-25T11:41:54;5.60;99.90
23629;DHT22;11991;57.150;-2.134;2023-04-25T11:44:22;5.70;99.90
23629;DHT22;11991;57.150;-2.134;2023-04-25T11:46:50;5.70;99.90
23629;DHT22;11991;57.150;-2.134;2023-04-25T11:49:17;5.90;99.90
23629;DHT22;11991;57.150;-2.134;2023-04-25T11:51:47;6.10;99.90
23629;DHT22;11991;57.150;-2.134;2023-04-25T11:54:15;6.20;99.90
23629;DHT22;11991;57.150;-2.134;2023-04-25T11:56:44;6.30;99.90
23629;DHT22;11991;57.150;-2.134;2023-04-25T11:59:12;6.40;99.90
23629;DHT22;11991;57.150;-2.134;2023-04-25T12:01:49;6.60;99.90
23629;DHT22;11991;57.150;-2.134;2023-04-25T12:04:23;6.70;99.90
23629;DHT22;11991;57.150;-2.134;2023-04-25T12:06:55;6.70;99.90
23629;DHT22;11991;57.150;-2.134;2023-04-25T12:09:30;6.70;99.90
23629;DHT22;11991;57.150;-2.134;2023-04-25T12:11:59;6.90;99.90
23629;DHT22;11991;57.150;-2.134;2023-04-25T12:14:32;7.00;99.90
23629;DHT22;11991;57.150;-2.134;2023-04-25T12:17:02;7.00;99.90
23629;DHT22;11991;57.150;-2.134;2023-04-25T12:19:37;7.10;99.90
23629;DHT22;11991;57.150;-2.134;2023-04-25T12:22:22;7.20;99.90
23629;DHT22;11991;57.150;-2.134;2023-04-25T12:24:49;7.30;99.90
23629;DHT22;11991;57.150;-2.134;2023-04-25T12:27:17;7.40;99.90
23629;DHT22;11991;57.150;-2.134;2023-04-25T12:29:53;7.50;99.90
23629;DHT22;11991;57.150;-2.134;2023-04-25T12:32:21;7.60;99.90
23629;DHT22;11991;57.150;-2.134;2023-04-25T12:34:49;7.50;99.90
23629;DHT22;11991;57.150;-2.134;2023-04-25T12:37:16;7.10;99.90
23629;DHT22;11991;57.150;-2.134;2023-04-25T12:39:43;6.70;99.90
23629;DHT22;11991;57.150;-2.134;2023-04-25T12:42:11;6.20;99.90
23629;DHT22;11991;57.150;-2.134;2023-04-25T12:44:39;5.90;99.90
23629;DHT22;11991;57.150;-2.134;2023-04-25T12:47:07;5.90;99.90
23629;DHT22;11991;57.150;-2.134;2023-04-25T12:49:34;5.80;99.90
23629;DHT22;11991;57.150;-2.134;2023-04-25T12:52:02;5.70;99.90
23629;DHT22;11991;57.150;-2.134;2023-04-25T12:54:29;5.60;99.90
23629;DHT22;11991;57.150;-2.134;2023-04-25T12:56:56;5.70;99.90
23629;DHT22;11991;57.150;-2.134;2023-04-25T12:59:24;5.70;99.90
23629;DHT22;11991;57.150;-2.134;2023-04-25T13:01:51;5.80;99.90
23629;DHT22;11991;57.150;-2.134;2023-04-25T13:04:18;5.80;99.90
23629;DHT22;11991;57.150;-2.134;2023-04-25T13:06:48;5.90;99.90
23629;DHT22;11991;57.150;-2.134;2023-04-25T13:09:15;6.10;99.90
23629;DHT22;11991;57.150;-2.134;2023-04-25T13:11:42;6.30;99.90
23629;DHT22;11991;57.150;-2.134;2023-04-25T13:14:10;6.30;99.90
23629;DHT22;11991;57.150;-2.134;2023-04-25T13:16:37;6.30;99.90
23629;DHT22;11991;57.150;-2.134;2023-04-25T13:19:04;6.30;99.90
23629;DHT22;11991;57.150;-2.134;2023-04-25T13:21:34;6.40;99.90
23629;DHT22;11991;57.150;-2.134;2023-04-25T13:24:02;6.50;99.90
23629;DHT22;11991;57.150;-2.134;2023-04-25T13:26:29;6.40;99.90
23629;DHT22;11991;57.150;-2.134;2023-04-25T13:28:56;6.40;99.90
23629;DHT22;11991;57.150;-2.134;2023-04-25T13:31:27;6.50;99.90
23629;DHT22;11991;57.150;-2.134;2023-04-25T13:33:55;6.70;99.90
23629;DHT22;11991;57.150;-2.134;2023-04-25T13:36:22;6.80;99.90
23629;DHT22;11991;57.150;-2.134;2023-04-25T13:38:49;7.00;99.90
23629;DHT22;11991;57.150;-2.134;2023-04-25T13:41:17;7.00;99.90
23629;DHT22;11991;57.150;-2.134;2023-04-25T13:43:46;7.00;99.90
23629;DHT22;11991;57.150;-2.134;2023-04-25T13:46:15;7.10;99.90
23629;DHT22;11991;57.150;-2.134;2023-04-25T13:49:03;7.20;99.90
23629;DHT22;11991;57.150;-2.134;2023-04-25T13:51:39;7.20;99.90
23629;DHT22;11991;57.150;-2.134;2023-04-25T13:54:07;7.10;99.90
23629;DHT22;11991;57.150;-2.134;2023-04-25T13:56:34;7.10;99.90
23629;DHT22;11991;57.150;-2.134;2023-04-25T13:59:02;7.10;99.90
23629;DHT22;11991;57.150;-2.134;2023-04-25T14:01:29;7.10;99.90
23629;DHT22;11991;57.150;-2.134;2023-04-25T14:03:58;7.20;99.90
23629;DHT22;11991;57.150;-2.134;2023-04-25T14:06:25;7.30;99.90
23629;DHT22;11991;57.150;-2.134;2023-04-25T14:08:53;7.30;99.90
23629;DHT22;11991;57.150;-2.134;2023-04-25T14:11:21;7.40;99.90
23629;DHT22;11991;57.150;-2.134;2023-04-25T14:13:48;7.50;99.90
23629;DHT22;11991;57.150;-2.134;2023-04-25T14:16:16;7.50;99.90
23629;DHT22;11991;57.150;-2.134;2023-04-25T14:18:44;7.40;99.90
23629;DHT22;11991;57.150;-2.134;2023-04-25T14:21:11;7.40;99.90
23629;DHT22;11991;57.150;-2.134;2023-04-25T14:23:38;7.30;99.90
23629;DHT22;11991;57.150;-2.134;2023-04-25T14:26:05;7.30;99.90
23629;DHT22;11991;57.150;-2.134;2023-04-25T14:28:33;7.20;99.90
23629;DHT22;11991;57.150;-2.134;2023-04-25T14:31:00;7.10;99.90
23629;DHT22;11991;57.150;-2.134;2023-04-25T14:33:27;7.10;99.90
23629;DHT22;11991;57.150;-2.134;2023-04-25T14:35:54;7.00;99.90
23629;DHT22;11991;57.150;-2.134;2023-04-25T14:38:22;6.90;99.90
23629;DHT22;11991;57.150;-2.134;2023-04-25T14:40:52;6.90;99.90
23629;DHT22;11991;57.150;-2.134;2023-04-25T14:43:20;6.80;99.90
23629;DHT22;11991;57.150;-2.134;2023-04-25T14:45:48;6.80;99.90
23629;DHT22;11991;57.150;-2.134;2023-04-25T14:48:15;6.80;99.90
23629;DHT22;11991;57.150;-2.134;2023-04-25T14:50:45;6.90;99.90
23629;DHT22;11991;57.150;-2.134;2023-04-25T14:53:13;7.10;99.90
23629;DHT22;11991;57.150;-2.134;2023-04-25T14:55:40;7.20;99.90
23629;DHT22;11991;57.150;-2.134;2023-04-25T14:58:09;7.20;99.90
23629;DHT22;11991;57.150;-2.134;2023-04-25T15:00:36;7.00;99.90
23629;DHT22;11991;57.150;-2.134;2023-04-25T15:03:04;6.60;99.90
23629;DHT22;11991;57.150;-2.134;2023-04-25T15:05:32;6.40;99.90
23629;DHT22;11991;57.150;-2.134;2023-04-25T15:08:01;6.30;99.90
23629;DHT22;11991;57.150;-2.134;2023-04-25T15:10:29;6.30;99.90
23629;DHT22;11991;57.150;-2.134;2023-04-25T15:12:56;6.30;99.90
23629;DHT22;11991;57.150;-2.134;2023-04-25T15:15:23;6.30;99.90
23629;DHT22;11991;57.150;-2.134;2023-04-25T15:17:53;6.30;99.90
23629;DHT22;11991;57.150;-2.134;2023-04-25T15:20:25;6.30;99.90
23629;DHT22;11991;57.150;-2.134;2023-04-25T15:22:54;6.40;99.90
23629;DHT22;11991;57.150;-2.134;2023-04-25T15:25:21;6.60;99.90
23629;DHT22;11991;57.150;-2.134;2023-04-25T15:27:48;6.80;99.90
23629;DHT22;11991;57.150;-2.134;2023-04-25T15:30:18;6.80;99.90
23629;DHT22;11991;57.150;-2.134;2023-04-25T15:32:46;6.80;99.90
23629;DHT22;11991;57.150;-2.134;2023-04-25T15:35:14;6.80;99.90
23629;DHT22;11991;57.150;-2.134;2023-04-25T15:37:42;6.80;99.90
23629;DHT22;11991;57.150;-2.134;2023-04-25T15:40:13;6.70;99.90
23629;DHT22;11991;57.150;-2.134;2023-04-25T15:42:58;6.70;99.90
23629;DHT22;11991;57.150;-2.134;2023-04-25T15:45:26;6.60;99.90
23629;DHT22;11991;57.150;-2.134;2023-04-25T15:47:55;6.50;99.90
23629;DHT22;11991;57.150;-2.134;2023-04-25T15:50:23;6.50;99.90
23629;DHT22;11991;57.150;-2.134;2023-04-25T15:52:50;6.50;99.90
23629;DHT22;11991;57.150;-2.134;2023-04-25T15:55:19;6.60;99.90
23629;DHT22;11991;57.150;-2.134;2023-04-25T15:57:49;6.60;99.90
23629;DHT22;11991;57.150;-2.134;2023-04-25T16:00:17;6.80;99.90
23629;DHT22;11991;57.150;-2.134;2023-04-25T16:02:45;6.90;99.90